Time;durP1;ratioP1;P1;durP2;ratioP2;P2;SDS_P1;SDS_P2;PMS_P1;PMS_P2;Temp;Humidity;BMP_temperature;BMP_pressure;BME280_temperature;BME280_humidity;BME280_pressure;Samples;Min_cycle;Max_cycle;Signal;HPM_P1;HPM_P2
2020/12/30 00:01:30;;;;;;;4.82;1.63;;;;;;;5.03;62.91;97990.59;4972232;28;20059;-77
2020/12/30 00:04:14;;;;;;;5.85;1.30;;;;;;;4.74;64.01;97996.13;4985666;28;20134;-79
2020/12/30 00:07:00;;;;;;;5.88;2.22;;;;;;;4.31;64.91;97987.09;4995136;28;20074;-78
2020/12/30 00:09:45;;;;;;;4.90;1.67;;;;;;;4.23;65.10;97994.91;5011030;28;20047;-77
2020/12/30 00:12:32;;;;;;;2.85;1.52;;;;;;;4.34;65.10;98000.00;4958203;28;20095;-80
2020/12/30 00:14:59;;;;;;;3.75;1.60;;;;;;;4.48;64.98;97999.84;4912053;28;20048;-77
2020/12/30 00:17:26;;;;;;;4.63;2.70;;;;;;;4.37;65.08;97992.19;4882741;28;20048;-81
2020/12/30 00:20:16;;;;;;;5.25;2.75;;;;;;;4.42;64.42;97987.84;4900036;28;20418;-78
2020/12/30 00:23:00;;;;;;;7.75;3.78;;;;;;;4.42;64.70;97989.56;4959614;28;20052;-82
2020/12/30 00:25:27;;;;;;;7.78;3.75;;;;;;;4.26;64.76;97975.94;4874509;28;20044;-79
2020/12/30 00:27:54;;;;;;;7.18;3.42;;;;;;;4.59;63.68;97985.09;4904382;28;20056;-79
2020/12/30 00:30:21;;;;;;;8.52;3.67;;;;;;;4.67;63.66;97984.13;4906287;28;20051;-80
2020/12/30 00:32:51;;;;;;;10.43;4.25;;;;;;;4.37;64.64;97987.03;4923486;28;20123;-80
2020/12/30 00:35:18;;;;;;;11.15;5.45;;;;;;;4.36;65.34;97985.34;4910155;28;20380;-81
2020/12/30 00:37:48;;;;;;;8.77;5.43;;;;;;;4.31;64.77;97984.53;4887694;28;20056;-80
2020/12/30 00:40:16;;;;;;;11.73;6.05;;;;;;;3.91;66.58;97981.44;4888307;28;20048;-79
2020/12/30 00:42:43;;;;;;;9.25;5.97;;;;;;;4.46;64.96;97993.84;4907087;28;20044;-77
2020/12/30 00:45:11;;;;;;;10.30;5.75;;;;;;;4.25;65.68;97987.16;4881867;28;20048;-77
2020/12/30 00:47:39;;;;;;;8.98;5.82;;;;;;;4.39;64.90;97983.56;4893634;28;20058;-78
2020/12/30 00:50:07;;;;;;;6.38;4.80;;;;;;;4.60;64.09;97989.38;4920887;28;20474;-76
2020/12/30 00:52:34;;;;;;;13.35;4.80;;;;;;;4.62;64.08;97980.72;4894985;28;20056;-76
2020/12/30 00:55:03;;;;;;;8.95;4.70;;;;;;;4.97;63.45;97989.81;4900474;28;20056;-78
2020/12/30 00:57:30;;;;;;;6.88;4.72;;;;;;;4.83;63.28;97998.59;4882811;28;20143;-78
2020/12/30 00:59:57;;;;;;;8.88;4.40;;;;;;;4.54;64.05;97994.63;4901734;28;20040;-80
2020/12/30 01:02:24;;;;;;;7.45;4.25;;;;;;;5.25;62.08;97993.75;4906551;28;20138;-81
2020/12/30 01:05:09;;;;;;;8.30;5.05;;;;;;;4.98;62.21;97992.38;4887567;28;20043;-79
2020/12/30 01:07:39;;;;;;;8.70;6.00;;;;;;;5.06;62.02;97995.72;4904795;28;20098;-77
2020/12/30 01:10:08;;;;;;;11.70;5.97;;;;;;;4.94;62.51;97995.84;4908265;28;20499;-78
2020/12/30 01:12:38;;;;;;;10.23;5.35;;;;;;;4.62;63.54;97993.66;4972143;28;20449;-78
2020/12/30 01:15:06;;;;;;;12.38;7.47;;;;;;;4.41;63.75;97993.03;5015663;28;20405;-80
2020/12/30 01:17:34;;;;;;;13.13;6.15;;;;;;;4.44;64.47;97991.28;5019420;28;20056;-78
2020/12/30 01:20:02;;;;;;;10.05;6.13;;;;;;;4.42;64.73;97989.56;5010373;28;20041;-77
2020/12/30 01:22:30;;;;;;;16.92;7.82;;;;;;;4.59;64.34;97985.94;5034478;28;20120;-79
2020/12/30 01:24:59;;;;;;;11.25;5.60;;;;;;;4.75;63.26;97991.78;4998102;28;20067;-80
2020/12/30 01:27:26;;;;;;;9.73;5.60;;;;;;;4.80;63.46;97990.00;5018221;28;20128;-81
2020/12/30 01:29:52;;;;;;;12.50;5.50;;;;;;;4.44;64.44;98000.75;5016751;28;20058;-82
2020/12/30 01:32:19;;;;;;;10.98;5.10;;;;;;;4.64;63.96;97999.69;5023853;28;20132;-80
2020/12/30 01:34:46;;;;;;;8.20;4.85;;;;;;;4.82;63.62;98003.78;5020439;28;20140;-81
2020/12/30 01:37:13;;;;;;;10.00;5.63;;;;;;;4.68;63.33;98000.50;5021121;28;21607;-81
2020/12/30 01:39:39;;;;;;;13.30;6.20;;;;;;;4.54;64.04;98013.56;5021985;28;20053;-81
2020/12/30 01:42:07;;;;;;;13.38;6.60;;;;;;;4.18;65.39;98006.16;5001954;28;20053;-81
2020/12/30 01:44:33;;;;;;;13.18;6.10;;;;;;;4.15;65.16;98013.97;5020508;28;20357;-80
2020/12/30 01:47:01;;;;;;;11.52;6.00;;;;;;;4.44;64.48;98011.09;5022793;28;20515;-81
2020/12/30 01:49:47;;;;;;;10.20;5.32;;;;;;;4.13;65.16;98021.72;5017888;28;20034;-81
2020/12/30 01:52:32;;;;;;;10.57;5.82;;;;;;;4.22;64.87;98023.38;5018835;28;20229;-81
2020/12/30 01:55:00;;;;;;;8.40;5.30;;;;;;;4.22;65.38;98026.78;5022305;28;20042;-81
2020/12/30 01:57:31;;;;;;;9.90;5.57;;;;;;;4.01;65.47;98020.97;5004606;28;20057;-81
2020/12/30 01:59:58;;;;;;;12.70;5.78;;;;;;;3.86;66.26;98032.28;5018788;28;20049;-81
2020/12/30 02:02:28;;;;;;;12.13;5.80;;;;;;;4.61;63.38;98033.31;5022132;28;20075;-81
2020/12/30 02:04:56;;;;;;;6.80;4.47;;;;;;;4.72;63.40;98040.97;5018842;28;20128;-80
2020/12/30 02:07:24;;;;;;;7.63;4.53;;;;;;;4.39;64.24;98048.19;5017950;28;20382;-82
2020/12/30 02:09:52;;;;;;;8.88;4.93;;;;;;;4.53;63.57;98044.63;5019690;28;20045;-80
2020/12/30 02:12:18;;;;;;;8.10;4.63;;;;;;;4.30;64.25;98044.84;4999072;28;20061;-80
2020/12/30 02:14:45;;;;;;;9.13;5.22;;;;;;;3.90;65.45;98040.00;5024163;28;20065;-81
2020/12/30 02:17:14;;;;;;;9.10;4.90;;;;;;;4.47;63.67;98042.09;5019363;28;20529;-81
2020/12/30 02:19:41;;;;;;;11.48;5.80;;;;;;;4.54;63.23;98042.03;5022594;28;20091;-80
2020/12/30 02:22:13;;;;;;;6.88;4.10;;;;;;;4.38;63.72;98041.31;4999721;28;20045;-80
2020/12/30 02:24:40;;;;;;;7.10;4.47;;;;;;;4.65;62.83;98045.34;5007644;28;20060;-81
2020/12/30 02:27:07;;;;;;;8.35;5.03;;;;;;;4.57;62.94;98043.72;5002357;28;20057;-81
2020/12/30 02:29:51;;;;;;;11.63;4.70;;;;;;;4.31;63.63;98038.81;5027653;28;20394;-81
2020/12/30 02:32:36;;;;;;;8.27;5.40;;;;;;;4.42;63.71;98052.47;5022101;28;20046;-81
2020/12/30 02:35:03;;;;;;;10.45;5.30;;;;;;;4.29;64.39;98043.97;5021307;28;20068;-80
2020/12/30 02:37:30;;;;;;;9.70;5.10;;;;;;;4.50;63.83;98055.00;5004180;28;20046;-80
2020/12/30 02:39:57;;;;;;;7.90;5.43;;;;;;;4.32;64.19;98056.00;5022360;28;20622;-81
2020/12/30 02:42:23;;;;;;;9.98;5.43;;;;;;;4.16;64.66;98050.13;5014021;28;20065;-81
2020/12/30 02:44:58;;;;;;;8.77;5.35;;;;;;;4.43;63.94;98051.59;5007710;28;20042;-81
2020/12/30 02:47:26;;;;;;;8.20;5.07;;;;;;;4.32;64.04;98046.53;5020089;28;20052;-80
2020/12/30 02:49:53;;;;;;;9.35;5.35;;;;;;;4.64;62.94;98054.00;5028216;28;20134;-81
2020/12/30 02:52:38;;;;;;;8.55;4.85;;;;;;;4.67;63.10;98061.72;5019340;28;20076;-80
2020/12/30 02:55:22;;;;;;;9.27;4.35;;;;;;;5.29;60.24;98067.91;5008217;28;20052;-81
2020/12/30 02:57:48;;;;;;;8.80;4.15;;;;;;;5.41;59.69;98064.31;5009590;28;20102;-80
2020/12/30 03:00:15;;;;;;;6.85;3.72;;;;;;;5.51;59.43;98068.50;5026035;28;20038;-80
2020/12/30 03:02:41;;;;;;;5.15;2.95;;;;;;;5.36;59.66;98066.09;5020697;28;20045;-80
2020/12/30 03:05:08;;;;;;;5.78;3.50;;;;;;;5.59;58.99;98071.81;5020198;28;20068;-80
2020/12/30 03:07:35;;;;;;;6.85;3.33;;;;;;;5.34;59.54;98076.47;5020349;28;20050;-80
2020/12/30 03:10:02;;;;;;;7.68;3.45;;;;;;;5.33;59.77;98066.13;5019615;28;20042;-81
2020/12/30 03:12:28;;;;;;;4.78;3.08;;;;;;;5.52;59.13;98070.19;5021320;28;20444;-81
2020/12/30 03:14:55;;;;;;;5.85;3.03;;;;;;;5.58;58.76;98070.09;5021776;28;20408;-81
2020/12/30 03:17:21;;;;;;;4.28;2.85;;;;;;;5.50;58.80;98053.81;5025362;28;20076;-80
2020/12/30 03:20:07;;;;;;;5.22;3.22;;;;;;;5.22;59.75;98063.69;5023050;28;20128;-81
2020/12/30 03:22:51;;;;;;;6.30;3.20;;;;;;;4.75;61.49;98074.56;5025437;28;20548;-80
2020/12/30 03:25:18;;;;;;;4.05;2.67;;;;;;;4.97;60.13;98070.88;5021663;28;20465;-80
2020/12/30 03:27:44;;;;;;;6.78;3.10;;;;;;;5.17;59.81;98066.34;5005897;28;20123;-80
2020/12/30 03:30:11;;;;;;;5.07;2.78;;;;;;;4.73;61.38;98071.13;5021531;28;20056;-80
2020/12/30 03:32:38;;;;;;;4.93;2.65;;;;;;;4.61;61.87;98071.25;5005923;28;20054;-79
2020/12/30 03:35:04;;;;;;;4.13;2.75;;;;;;;4.97;61.13;98073.47;5002898;28;20079;-80
2020/12/30 03:37:32;;;;;;;5.07;3.13;;;;;;;4.53;62.22;98070.47;5024190;28;20140;-80
2020/12/30 03:39:58;;;;;;;5.50;3.17;;;;;;;4.91;61.20;98077.84;5016475;28;20042;-80
2020/12/30 03:42:25;;;;;;;7.95;3.28;;;;;;;5.07;60.46;98079.41;5004993;28;20102;-79
2020/12/30 03:44:51;;;;;;;5.93;2.70;;;;;;;4.82;61.10;98074.50;5022224;28;20064;-81
2020/12/30 03:47:18;;;;;;;6.13;3.10;;;;;;;5.37;59.44;98083.34;5005509;28;20045;-79
2020/12/30 03:49:44;;;;;;;5.97;3.00;;;;;;;5.13;60.01;98084.50;5022427;28;20469;-79
2020/12/30 03:52:11;;;;;;;5.40;2.67;;;;;;;5.34;59.59;98081.66;5007276;28;20045;-79
2020/12/30 03:54:38;;;;;;;6.03;2.90;;;;;;;5.44;58.71;98083.25;5022867;28;20056;-80
2020/12/30 03:57:04;;;;;;;3.80;2.55;;;;;;;5.46;58.61;98096.19;5015095;28;20049;-79
2020/12/30 03:59:31;;;;;;;5.03;2.55;;;;;;;5.55;58.26;98085.69;5002078;28;20709;-79
2020/12/30 04:01:58;;;;;;;5.45;2.85;;;;;;;5.35;58.27;98085.97;5023355;28;20049;-80
2020/12/30 04:04:24;;;;;;;5.35;2.22;;;;;;;5.43;58.25;98091.03;5015948;28;20409;-80
2020/12/30 04:06:51;;;;;;;6.70;2.60;;;;;;;5.21;58.37;98091.31;5024408;28;20060;-80
2020/12/30 04:09:17;;;;;;;3.97;2.63;;;;;;;5.28;58.50;98092.94;5022881;28;20337;-80
2020/12/30 04:11:44;;;;;;;7.18;2.70;;;;;;;5.37;58.09;98091.94;5018037;28;20064;-80
2020/12/30 04:14:28;;;;;;;4.93;2.42;;;;;;;5.28;57.91;98092.94;5020826;28;20494;-80
2020/12/30 04:17:13;;;;;;;4.20;2.45;;;;;;;5.30;57.91;98094.66;5025494;28;20041;-80
2020/12/30 04:19:39;;;;;;;6.10;2.85;;;;;;;5.36;57.89;98092.84;5023033;28;20037;-79
2020/12/30 04:22:06;;;;;;;3.40;2.33;;;;;;;5.23;58.18;98094.72;5005038;28;20491;-81
2020/12/30 04:24:33;;;;;;;4.93;2.63;;;;;;;5.20;58.61;98094.75;5022058;28;20189;-79
2020/12/30 04:26:59;;;;;;;4.03;2.60;;;;;;;5.44;58.10;98091.00;5017673;28;20492;-80
2020/12/30 04:29:26;;;;;;;7.38;2.80;;;;;;;5.35;58.42;98093.72;5017591;28;20136;-80
2020/12/30 04:31:53;;;;;;;3.83;2.67;;;;;;;5.31;58.79;98092.06;5019746;28;20046;-81
2020/12/30 04:34:19;;;;;;;3.92;2.42;;;;;;;5.25;58.83;98087.81;5003366;28;20492;-80
2020/12/30 04:36:46;;;;;;;5.05;2.20;;;;;;;5.46;58.60;98086.69;5021552;28;20061;-80
2020/12/30 04:39:13;;;;;;;3.60;2.53;;;;;;;5.47;58.26;98088.38;5024475;28;20519;-80
2020/12/30 04:41:41;;;;;;;4.85;2.45;;;;;;;5.17;59.00;98076.69;5024907;28;20064;-80
2020/12/30 04:44:08;;;;;;;4.13;2.17;;;;;;;5.33;58.36;98081.66;5010393;28;20057;-81
2020/12/30 04:46:36;;;;;;;6.28;3.30;;;;;;;5.23;58.65;98073.16;5023063;28;20378;-81
2020/12/30 04:49:21;;;;;;;5.65;2.63;;;;;;;5.02;59.18;98084.63;5019869;28;20048;-80
2020/12/30 04:52:06;;;;;;;6.50;2.50;;;;;;;5.06;58.97;98069.91;5018356;28;20056;-80
2020/12/30 04:54:33;;;;;;;4.80;2.78;;;;;;;5.33;58.44;98073.88;5003747;28;20041;-81
2020/12/30 04:57:03;;;;;;;6.93;3.40;;;;;;;4.70;59.82;98079.78;5020164;28;20057;-80
2020/12/30 04:59:35;;;;;;;6.07;3.33;;;;;;;4.70;60.76;98084.94;5019643;28;20053;-80
2020/12/30 05:02:04;;;;;;;6.88;3.40;;;;;;;4.37;61.81;98086.13;5019640;28;20526;-81
2020/12/30 05:04:32;;;;;;;5.82;3.40;;;;;;;4.52;62.02;98085.13;5034186;28;20092;-80
2020/12/30 05:07:04;;;;;;;5.47;3.25;;;;;;;4.53;62.16;98084.25;5025579;28;20056;-81
2020/12/30 05:09:32;;;;;;;;;;;;;;;4.90;61.56;98089.06;5022504;28;20128;-80
2020/12/30 05:11:58;;;;;;;5.28;3.33;;;;;;;5.00;60.68;98083.78;5022188;28;20012;-80
2020/12/30 05:14:25;;;;;;;4.25;2.78;;;;;;;5.21;59.79;98085.25;5001220;28;20053;-80
2020/12/30 05:16:52;;;;;;;3.60;2.25;;;;;;;5.34;59.32;98084.22;5002786;28;20053;-80
2020/12/30 05:19:18;;;;;;;5.25;2.47;;;;;;;5.09;59.65;98081.06;5016845;28;20411;-80
2020/12/30 05:21:45;;;;;;;4.13;2.33;;;;;;;5.38;59.09;98085.91;5002430;28;20053;-80
2020/12/30 05:24:12;;;;;;;4.10;2.70;;;;;;;5.27;59.58;98087.78;5015586;28;20515;-80
2020/12/30 05:26:41;;;;;;;4.32;2.05;;;;;;;5.21;59.81;98086.13;5019882;28;20508;-80
2020/12/30 05:29:08;;;;;;;7.60;3.22;;;;;;;4.89;60.67;98096.00;5022680;28;20069;-80
2020/12/30 05:31:34;;;;;;;5.25;3.00;;;;;;;4.81;61.06;98090.88;5020148;28;20077;-80
2020/12/30 05:34:20;;;;;;;5.63;3.20;;;;;;;5.21;59.73;98095.63;4995989;28;20497;-80
2020/12/30 05:37:05;;;;;;;10.07;3.50;;;;;;;5.47;58.69;98090.09;5022265;28;20409;-80
2020/12/30 05:39:34;;;;;;;5.25;3.75;;;;;;;5.20;59.20;98091.31;5023648;28;20163;-80
2020/12/30 05:42:18;;;;;;;8.27;3.90;;;;;;;5.38;59.40;98093.66;5027831;28;20052;-80
2020/12/30 05:44:47;;;;;;;6.82;3.75;;;;;;;5.03;59.97;98086.34;5012279;28;20045;-81
2020/12/30 05:47:24;;;;;;;7.75;4.53;;;;;;;4.53;61.89;98086.84;5021043;28;20147;-80
2020/12/30 05:49:53;;;;;;;9.38;4.93;;;;;;;4.61;62.19;98090.22;5015970;28;20045;-80
2020/12/30 05:52:25;;;;;;;5.85;4.18;;;;;;;4.66;62.26;98096.19;5004724;28;20049;-80
2020/12/30 05:54:56;;;;;;;8.32;5.18;;;;;;;4.67;62.20;98091.88;5018191;28;20079;-80
2020/12/30 05:57:28;;;;;;;7.97;4.55;;;;;;;4.40;63.45;98087.84;5027300;28;20066;-81
2020/12/30 05:59:56;;;;;;;;;;;;;;;4.83;62.58;98099.50;5033958;28;20124;-80
2020/12/30 06:02:25;;;;;;;6.57;4.32;;;;;;;4.81;62.35;98100.38;5021665;28;20424;-81
2020/12/30 06:04:53;;;;;;;8.63;4.55;;;;;;;4.82;63.22;98099.50;5016594;28;20469;-81
2020/12/30 06:07:19;;;;;;;9.27;4.82;;;;;;;5.04;62.26;98106.16;5023569;28;20145;-80
2020/12/30 06:10:07;;;;;;;8.98;4.82;;;;;;;5.14;62.05;98104.31;5022485;28;20045;-80
2020/12/30 06:12:53;;;;;;;11.68;5.45;;;;;;;5.28;61.73;98111.06;5027078;28;20057;-82
2020/12/30 06:15:27;;;;;;;9.10;4.53;;;;;;;5.23;62.20;98110.25;5019431;28;20045;-80
2020/12/30 06:18:01;;;;;;;8.77;5.47;;;;;;;5.25;62.12;98110.25;5010225;28;20061;-80
2020/12/30 06:20:31;;;;;;;10.90;5.40;;;;;;;5.05;62.98;98107.00;5038652;28;20068;-80
2020/12/30 06:23:02;;;;;;;8.02;5.05;;;;;;;5.34;61.39;98109.28;5024803;28;20503;-80
2020/12/30 06:25:33;;;;;;;13.15;6.63;;;;;;;4.97;63.12;98121.78;5022879;28;20054;-80
2020/12/30 06:28:14;;;;;;;12.80;5.65;;;;;;;4.82;63.26;98115.03;5025843;28;20045;-80
2020/12/30 06:30:45;;;;;;;12.77;7.00;;;;;;;5.05;62.95;98110.47;5015120;28;20103;-81
2020/12/30 06:33:12;;;;;;;16.08;6.13;;;;;;;4.93;63.91;98112.34;5013485;28;20897;-80
2020/12/30 06:35:41;;;;;;;10.20;6.47;;;;;;;4.74;64.23;98109.06;5028354;28;20151;-80
2020/12/30 06:38:22;;;;;;;12.32;7.18;;;;;;;4.28;65.47;98112.06;5022576;28;20045;-80
2020/12/30 06:40:55;;;;;;;13.57;6.73;;;;;;;4.15;66.59;98104.41;5025189;28;20156;-80
2020/12/30 06:43:43;;;;;;;20.90;7.97;;;;;;;4.35;65.92;98120.63;5022642;28;20091;-80
2020/12/30 06:46:11;;;;;;;16.67;7.53;;;;;;;4.16;66.70;98111.28;5014827;28;20563;-80
2020/12/30 06:49:19;;;;;;;13.27;7.40;;;;;;;4.22;66.30;98119.00;5026947;28;20084;-80
2020/12/30 06:51:45;;;;;;;16.70;7.70;;;;;;;4.35;66.17;98121.50;4938061;28;20289;-80
2020/12/30 06:54:12;;;;;;;12.38;6.80;;;;;;;4.26;66.47;98118.97;4948720;28;20051;-80
2020/12/30 06:56:44;;;;;;;12.75;7.50;;;;;;;4.56;66.18;98130.78;4933419;28;20063;-80
2020/12/30 06:59:26;;;;;;;19.38;7.60;;;;;;;4.58;65.64;98133.34;4964217;28;20035;-81
2020/12/30 07:02:13;;;;;;;14.88;7.78;;;;;;;4.20;67.39;98136.25;4960303;28;20058;-79
2020/12/30 07:05:01;;;;;;;13.38;7.88;;;;;;;4.49;66.16;98142.06;4952749;28;20881;-80
2020/12/30 07:07:28;;;;;;;19.33;8.30;;;;;;;4.39;66.21;98148.16;4949820;28;20042;-81
2020/12/30 07:09:54;;;;;;;21.50;8.10;;;;;;;4.60;66.12;98152.31;4950374;28;20074;-81
2020/12/30 07:12:21;;;;;;;18.75;7.95;;;;;;;4.74;65.67;98153.06;4938464;28;20152;-80
2020/12/30 07:14:48;;;;;;;16.52;7.97;;;;;;;5.09;64.79;98145.78;4946765;28;20043;-81
2020/12/30 07:17:19;;;;;;;18.45;8.05;;;;;;;5.10;64.96;98147.50;4923899;28;20071;-80
2020/12/30 07:19:48;;;;;;;12.80;7.22;;;;;;;4.84;65.67;98152.09;4945799;28;20047;-81
2020/12/30 07:22:14;;;;;;;19.90;7.85;;;;;;;4.68;66.67;98148.78;4945698;28;20070;-82
2020/12/30 07:24:53;;;;;;;16.05;8.40;;;;;;;4.46;66.90;98156.75;4942382;28;20054;-80
2020/12/30 07:27:22;;;;;;;21.42;7.90;;;;;;;4.83;66.37;98156.41;4960491;28;20042;-80
2020/12/30 07:29:49;;;;;;;16.52;7.93;;;;;;;4.41;67.65;98167.13;5005797;28;20172;-80
2020/12/30 07:32:18;;;;;;;18.77;7.38;;;;;;;5.17;65.09;98164.69;5023274;28;20063;-80
2020/12/30 07:34:49;;;;;;;18.63;7.53;;;;;;;5.22;64.86;98165.50;5030922;28;20103;-80
2020/12/30 07:37:17;;;;;;;18.80;7.70;;;;;;;4.98;65.88;98173.53;5021247;28;20065;-80
2020/12/30 07:39:46;;;;;;;14.48;6.57;;;;;;;5.34;64.59;98166.22;5027319;28;20384;-80
2020/12/30 07:42:31;;;;;;;12.27;6.88;;;;;;;4.48;67.20;98171.34;5020412;28;20203;-80
2020/12/30 07:44:58;;;;;;;14.38;6.88;;;;;;;4.81;66.40;98170.22;5001148;28;20410;-80
2020/12/30 07:47:26;;;;;;;21.42;7.65;;;;;;;5.26;65.15;98184.44;5021276;28;20092;-81
2020/12/30 07:50:02;;;;;;;17.15;7.18;;;;;;;5.09;64.97;98187.19;5022315;28;20076;-80
2020/12/30 07:52:29;;;;;;;17.33;7.28;;;;;;;5.03;65.37;98189.00;5003397;28;20416;-81
2020/12/30 07:54:57;;;;;;;19.83;6.70;;;;;;;4.89;66.45;98196.03;5005212;28;20067;-80
2020/12/30 07:57:24;;;;;;;18.08;6.57;;;;;;;4.92;65.68;98196.00;5019782;28;20527;-79
2020/12/30 07:59:51;;;;;;;9.85;5.60;;;;;;;4.90;66.09;98196.00;5016857;28;20390;-80
2020/12/30 08:02:19;;;;;;;18.05;6.38;;;;;;;5.12;64.63;98200.13;5031833;28;20049;-81
2020/12/30 08:04:47;;;;;;;12.35;5.78;;;;;;;4.79;65.46;98203.03;5018028;28;20049;-80
2020/12/30 08:07:16;;;;;;;17.02;5.95;;;;;;;5.11;64.18;98206.16;5021856;28;20073;-83
2020/12/30 08:09:45;;;;;;;15.73;5.75;;;;;;;5.07;64.80;98204.50;5023018;28;20450;-81
2020/12/30 08:12:14;;;;;;;12.48;5.50;;;;;;;5.00;64.82;98209.72;5020687;28;20056;-80
2020/12/30 08:14:43;;;;;;;14.68;5.70;;;;;;;5.33;63.78;98208.53;5008487;28;20049;-81
2020/12/30 08:17:11;;;;;;;19.88;6.07;;;;;;;4.95;64.84;98217.53;5012950;28;20042;-81
2020/12/30 08:19:42;;;;;;;13.15;5.28;;;;;;;5.38;63.78;98215.38;5017113;28;20137;-81
2020/12/30 08:22:26;;;;;;;12.63;5.57;;;;;;;5.28;63.73;98218.94;5037873;28;20056;-81
2020/12/30 08:24:57;;;;;;;15.88;5.35;;;;;;;5.31;63.56;98218.06;5021808;28;20488;-81
2020/12/30 08:27:28;;;;;;;15.38;5.88;;;;;;;5.58;62.81;98218.63;5019001;28;20049;-80
2020/12/30 08:30:16;;;;;;;15.75;6.00;;;;;;;5.24;64.45;98222.44;5040174;28;20108;-81
2020/12/30 08:33:03;;;;;;;16.92;6.45;;;;;;;6.03;61.58;98227.63;5015549;28;20443;-82
2020/12/30 08:35:43;;;;;;;11.80;5.28;;;;;;;5.71;61.88;98232.28;5003720;28;20045;-81
2020/12/30 08:38:12;;;;;;;14.65;5.22;;;;;;;5.42;62.35;98234.34;5020419;28;20037;-83
2020/12/30 08:40:41;;;;;;;12.50;3.90;;;;;;;5.17;63.03;98236.31;5018482;28;23501;-81
2020/12/30 08:43:10;;;;;;;14.10;5.97;;;;;;;5.46;62.84;98236.91;5022964;28;20053;-82
2020/12/30 08:46:00;;;;;;;11.23;4.40;;;;;;;5.72;62.02;98236.59;5016398;28;20049;-82
2020/12/30 08:48:30;;;;;;;10.52;3.90;;;;;;;5.40;62.97;98236.09;5011102;28;20048;-82
2020/12/30 08:50:57;;;;;;;13.90;4.35;;;;;;;5.84;61.98;98243.38;5029236;28;20131;-81
2020/12/30 08:53:34;;;;;;;15.57;3.88;;;;;;;5.93;61.79;98238.97;5021518;28;20061;-82
2020/12/30 08:56:20;;;;;;;18.55;4.05;;;;;;;5.49;63.30;98238.59;5030520;28;20455;-81
2020/12/30 08:59:05;;;;;;;15.70;3.97;;;;;;;5.55;63.09;98239.38;5011499;28;20034;-83
2020/12/30 09:01:31;;;;;;;17.92;5.78;;;;;;;5.51;62.55;98237.72;5001437;28;20084;-82
2020/12/30 09:04:11;;;;;;;15.18;3.88;;;;;;;5.42;63.52;98242.97;5007586;28;20080;-81
2020/12/30 09:06:39;;;;;;;12.50;4.75;;;;;;;5.41;63.75;98238.69;5013951;28;20133;-82
2020/12/30 09:09:14;;;;;;;17.35;4.90;;;;;;;5.51;63.41;98235.13;5012701;28;20045;-82
2020/12/30 09:11:48;;;;;;;9.65;4.13;;;;;;;5.66;62.72;98236.66;5017453;28;20061;-83
2020/12/30 09:14:23;;;;;;;10.98;3.75;;;;;;;5.69;63.50;98244.41;5001424;28;20083;-84
2020/12/30 09:16:58;;;;;;;11.82;4.28;;;;;;;5.28;64.16;98244.81;4992850;28;20053;-84
2020/12/30 09:19:25;;;;;;;14.07;4.60;;;;;;;5.56;63.81;98248.03;5021525;28;20054;-84
2020/12/30 09:21:52;;;;;;;10.30;4.13;;;;;;;5.82;62.30;98248.56;5019087;28;20152;-85
2020/12/30 09:24:20;;;;;;;11.70;4.18;;;;;;;5.88;63.07;98245.94;5008307;28;20502;-84
2020/12/30 09:26:47;;;;;;;12.57;4.38;;;;;;;6.05;62.37;98256.94;5011237;28;20046;-85
2020/12/30 09:29:19;;;;;;;15.25;4.20;;;;;;;5.75;63.19;98253.84;5022095;28;20080;-86
2020/12/30 09:31:56;;;;;;;8.98;3.83;;;;;;;6.00;62.36;98253.56;5007262;28;20143;-85
2020/12/30 09:34:30;;;;;;;8.57;3.80;;;;;;;5.68;63.40;98250.47;5009816;28;20838;-85
2020/12/30 09:36:58;;;;;;;18.10;4.07;;;;;;;6.01;62.06;98257.88;5039343;28;20053;-86
2020/12/30 09:39:27;;;;;;;14.73;3.92;;;;;;;6.04;62.07;98255.22;5023798;28;20078;-87
2020/12/30 09:42:12;;;;;;;10.52;3.95;;;;;;;5.96;62.38;98257.06;5037721;28;20041;-87
2020/12/30 09:44:57;;;;;;;13.55;4.15;;;;;;;5.88;62.26;98255.44;5032394;28;20051;-86
2020/12/30 09:47:42;;;;;;;12.40;4.72;;;;;;;6.31;61.62;98245.41;5040432;28;20049;-87
2020/12/30 09:50:26;;;;;;;14.70;5.32;;;;;;;5.99;62.46;98257.06;5040410;28;20049;-86
2020/12/30 09:52:53;;;;;;;14.98;4.18;;;;;;;5.65;63.70;98246.19;5043391;28;20046;-86
2020/12/30 09:55:20;;;;;;;12.32;4.43;;;;;;;5.58;64.11;98243.66;5039534;28;20049;-86
2020/12/30 09:57:46;;;;;;;12.40;5.00;;;;;;;5.63;64.20;98249.66;5024366;28;20224;-87
2020/12/30 10:00:13;;;;;;;8.27;4.25;;;;;;;5.63;64.57;98245.34;5037836;28;20056;-86
2020/12/30 10:02:39;;;;;;;10.23;4.00;;;;;;;5.71;63.32;98245.22;5041494;28;20612;-86
2020/12/30 10:05:06;;;;;;;9.23;4.55;;;;;;;6.22;62.33;98251.56;5022763;28;20127;-87
2020/12/30 10:07:37;;;;;;;12.25;4.65;;;;;;;5.96;63.36;98243.25;5037974;28;20737;-87
2020/12/30 10:10:04;;;;;;;11.10;4.13;;;;;;;6.33;62.43;98246.25;5003216;28;20479;-86
2020/12/30 10:12:31;;;;;;;10.65;4.13;;;;;;;6.65;61.32;98246.63;5019149;28;20170;-88
2020/12/30 10:14:58;;;;;;;12.85;4.32;;;;;;;6.72;60.64;98256.03;5020870;28;20439;-84
2020/12/30 10:17:25;;;;;;;9.95;3.33;;;;;;;7.33;59.21;98249.84;5026190;28;20057;-85
2020/12/30 10:19:51;;;;;;;9.95;3.67;;;;;;;7.50;58.16;98258.19;5027411;28;20045;-85
2020/12/30 10:22:18;;;;;;;9.90;3.20;;;;;;;7.38;58.66;98254.09;5023410;28;20048;-86
2020/12/30 10:24:45;;;;;;;9.68;3.33;;;;;;;7.37;58.17;98248.91;5020710;28;20467;-85
2020/12/30 10:27:12;;;;;;;6.30;2.50;;;;;;;7.42;58.10;98253.16;4998862;28;20155;-84
2020/12/30 10:29:39;;;;;;;6.97;2.80;;;;;;;7.89;56.88;98256.59;5022820;28;20049;-84
2020/12/30 10:32:05;;;;;;;4.88;2.63;;;;;;;7.57;57.61;98248.56;5019996;28;20103;-84
2020/12/30 10:34:33;;;;;;;8.50;2.72;;;;;;;7.49;57.90;98259.06;5038934;28;20068;-84
2020/12/30 10:37:18;;;;;;;8.40;2.70;;;;;;;7.37;59.10;98257.56;5018659;28;20041;-84
2020/12/30 10:40:04;;;;;;;7.65;2.42;;;;;;;7.75;57.85;98256.84;4997671;28;20038;-82
2020/12/30 10:42:31;;;;;;;8.02;2.42;;;;;;;7.54;57.79;98257.25;5003772;28;20049;-82
2020/12/30 10:44:58;;;;;;;8.35;2.88;;;;;;;8.08;56.54;98259.66;5036006;28;20049;-81
2020/12/30 10:47:28;;;;;;;11.25;2.83;;;;;;;7.38;57.91;98251.50;5005562;28;21314;-80
2020/12/30 10:49:55;;;;;;;10.50;3.35;;;;;;;7.06;58.74;98253.75;5001485;28;20050;-83
2020/12/30 10:52:22;;;;;;;8.35;2.70;;;;;;;7.16;58.55;98247.53;5022514;28;20050;-82
2020/12/30 10:54:49;;;;;;;10.32;3.65;;;;;;;6.75;59.90;98247.34;5027543;28;20045;-82
2020/12/30 10:57:17;;;;;;;9.90;3.10;;;;;;;6.79;60.13;98247.28;5011793;28;20053;-83
2020/12/30 10:59:44;;;;;;;10.23;3.25;;;;;;;7.08;58.82;98254.59;5023475;28;20514;-80
2020/12/30 11:02:10;;;;;;;11.70;2.42;;;;;;;6.94;59.81;98252.22;5019453;28;20045;-80
2020/12/30 11:04:37;;;;;;;10.15;2.85;;;;;;;7.28;58.33;98255.13;5023247;28;20057;-82
2020/12/30 11:07:05;;;;;;;8.52;2.70;;;;;;;8.03;56.45;98258.91;5016838;28;20057;-82
2020/12/30 11:09:32;;;;;;;10.82;3.05;;;;;;;7.74;56.86;98262.06;5026592;28;20454;-81
2020/12/30 11:12:00;;;;;;;8.43;2.70;;;;;;;7.62;56.98;98263.19;4995183;28;20067;-81
2020/12/30 11:14:33;;;;;;;9.65;2.75;;;;;;;7.08;58.96;98261.53;5028842;28;20037;-79
2020/12/30 11:17:00;;;;;;;19.10;3.75;;;;;;;7.20;58.37;98259.56;4990693;28;20039;-82
2020/12/30 11:19:26;;;;;;;13.30;2.55;;;;;;;6.78;60.17;98253.34;5010031;28;20052;-81
2020/12/30 11:22:11;;;;;;;5.75;2.55;;;;;;;6.69;60.24;98250.88;4993700;28;20073;-81
2020/12/30 11:24:57;;;;;;;10.25;3.60;;;;;;;6.90;60.04;98258.34;4998120;28;20061;-79
2020/12/30 11:27:24;;;;;;;8.98;2.65;;;;;;;7.19;59.08;98262.22;4990209;28;20047;-82
2020/12/30 11:29:51;;;;;;;11.60;3.25;;;;;;;7.15;59.16;98264.00;5001159;28;20051;-81
2020/12/30 11:32:17;;;;;;;9.05;3.05;;;;;;;6.75;60.53;98257.72;4937719;28;20043;-79
2020/12/30 11:34:49;;;;;;;11.82;2.90;;;;;;;6.58;60.92;98257.97;4949236;28;20461;-80
2020/12/30 11:37:22;;;;;;;11.93;2.60;;;;;;;6.92;59.54;98260.91;4995341;28;21946;-81
2020/12/30 11:39:52;;;;;;;15.25;3.05;;;;;;;7.28;59.28;98268.13;4992600;28;20548;-79
2020/12/30 11:42:21;;;;;;;9.63;3.42;;;;;;;7.27;58.87;98257.75;5001136;28;20043;-82
2020/12/30 11:44:52;;;;;;;13.75;3.30;;;;;;;6.80;59.54;98259.38;4996775;28;20352;-77
2020/12/30 11:47:19;;;;;;;11.90;3.00;;;;;;;6.94;59.67;98252.22;4999312;28;20052;-78
2020/12/30 11:49:46;;;;;;;9.80;3.42;;;;;;;6.46;60.82;98252.97;5003484;28;20105;-79
2020/12/30 11:52:13;;;;;;;15.68;3.60;;;;;;;7.02;59.52;98249.50;4992066;28;20055;-78
2020/12/30 11:54:41;;;;;;;12.40;4.45;;;;;;;7.11;59.43;98248.47;5007213;28;20386;-79
2020/12/30 11:57:11;;;;;;;11.00;3.55;;;;;;;6.76;60.73;98251.66;4992523;28;20055;-78